메인 페이지
METAR-TAF:

METAR-TAF

공항 :

벨렝, 파라, 브라질

위도: 01-23S, 경도: 048-29W, 고도: 16m

현재 날씨관측

예보는 1 시간 12분 전, 13:00시(UTC)에 발표되었습니다.
동북동7kt
온도 28°C
습도 79%
기압 1011 hPa
시정 10km 이상
고도 2000ft 상공 구름 많음

METAR: SBBE 271300Z 07007KT 9999 BKN020 28/24 Q1011

시각: 11:12 (14:12 UTC)

예보

예보는 5 시간 12분 전, 09:00시(UTC)에 발표되었습니다.
예보 대상 시간: 27일 12시부터 28일 12시까지 (UTC)
10kt
시정: 8000m
고도 1700ft 상공 구름 많음
전환 중
27일 15시부터 27일 17시까지 (UTC)
북북동10kt
시정: 7000m
고도 2300ft 상공 구름 많음
고도 3000ft 상공 구름 조금, 타워링 적운.
확률 40% :
일시적
27일 17시부터 27일 22시까지 (UTC)
시정: 4000m
고도 1700ft 상공 구름 많음
고도 3000ft 상공 구름 조금, 적란운.
뇌우, 비
전환 중
27일 22시부터 27일 24시까지 (UTC)
남동7kt
시정: 8000m
고도 2000ft 상공 구름 보통
확률 40%
28일 00시부터 28일 02시까지 (UTC)
시정: 6000m
고도 2000ft 상공 구름 많음
고도 3000ft 상공 구름 조금, 적란운.
뇌우, 비
전환 중
28일 08시부터 28일 10시까지 (UTC)
남남동5kt
고도 500ft 상공 구름 조금
고도 1700ft 상공 구름 보통

TAF: SBBE 270900Z 2712/2812 08010KT 8000 BKN017 TX30/2717Z TN24/2810Z BECMG 2715/2717 03010KT 7000 BKN023 FEW030TCU PROB40 TEMPO 2717/2722 4000 TSRA BKN017 FEW030CB BECMG 2722/2724 14007KT 8000 SCT020 PROB40 2800/2802 6000 TSRA BKN020 FEW030CB BECMG 2808/2810 15005KT FEW005 SCT017 RMK PHN

4,000개 이상의 공항 관측 자료 및 예보 (METAR 및 TAF 보고).

지도상에서 검색 가능한 기상관측소가 노란 점과 빨간 점으로 표시되어 있습니다.

기상관측소 명을 보려면 표시 위로 마우스를 이동하세요.

날씨 관측과 예보를 보려면 클릭하세요.

지도 변경 : 확대하려면 엑스 표시가 있는 녹색 버튼, 축소하려면 빼기 표시가 있는 녹색 버튼, 다음 페이지의 지도를 보려면 녹색 화살표를 클릭하세요.


METAR-TAF: